sensor_id;sensor_type;location;lat;lon;timestamp;P1;durP1;ratioP1;P2;durP2;ratioP2
17686;SDS011;8962;52.538;13.266;2023-10-13T00:01:53;8.40;;;3.75;;
17686;SDS011;8962;52.538;13.266;2023-10-13T00:04:24;9.43;;;4.10;;
17686;SDS011;8962;52.538;13.266;2023-10-13T00:06:52;10.43;;;3.90;;
17686;SDS011;8962;52.538;13.266;2023-10-13T00:09:23;10.55;;;3.58;;
17686;SDS011;8962;52.538;13.266;2023-10-13T00:11:50;7.65;;;4.07;;
17686;SDS011;8962;52.538;13.266;2023-10-13T00:14:21;9.85;;;3.63;;
17686;SDS011;8962;52.538;13.266;2023-10-13T00:16:57;8.40;;;4.00;;
17686;SDS011;8962;52.538;13.266;2023-10-13T00:19:30;7.93;;;3.72;;
17686;SDS011;8962;52.538;13.266;2023-10-13T00:22:04;9.48;;;3.90;;
17686;SDS011;8962;52.538;13.266;2023-10-13T00:24:37;8.98;;;3.72;;
17686;SDS011;8962;52.538;13.266;2023-10-13T00:27:10;6.55;;;3.25;;
17686;SDS011;8962;52.538;13.266;2023-10-13T00:29:55;6.40;;;3.80;;
17686;SDS011;8962;52.538;13.266;2023-10-13T00:32:46;6.85;;;3.90;;
17686;SDS011;8962;52.538;13.266;2023-10-13T00:35:21;7.55;;;3.92;;
17686;SDS011;8962;52.538;13.266;2023-10-13T00:37:53;8.13;;;3.35;;
17686;SDS011;8962;52.538;13.266;2023-10-13T00:40:23;7.20;;;3.50;;
17686;SDS011;8962;52.538;13.266;2023-10-13T00:43:05;7.43;;;3.88;;
17686;SDS011;8962;52.538;13.266;2023-10-13T00:45:47;8.80;;;3.30;;
17686;SDS011;8962;52.538;13.266;2023-10-13T00:48:22;6.10;;;3.40;;
17686;SDS011;8962;52.538;13.266;2023-10-13T00:50:56;8.55;;;3.67;;
17686;SDS011;8962;52.538;13.266;2023-10-13T00:53:28;10.40;;;4.22;;
17686;SDS011;8962;52.538;13.266;2023-10-13T00:55:57;6.20;;;3.78;;
17686;SDS011;8962;52.538;13.266;2023-10-13T00:58:31;8.85;;;3.92;;
17686;SDS011;8962;52.538;13.266;2023-10-13T01:00:59;8.27;;;3.50;;
17686;SDS011;8962;52.538;13.266;2023-10-13T01:03:43;11.05;;;4.15;;
17686;SDS011;8962;52.538;13.266;2023-10-13T01:06:13;11.50;;;3.72;;
17686;SDS011;8962;52.538;13.266;2023-10-13T01:08:42;5.93;;;3.75;;
17686;SDS011;8962;52.538;13.266;2023-10-13T01:11:18;8.30;;;3.58;;
17686;SDS011;8962;52.538;13.266;2023-10-13T01:13:45;9.23;;;3.45;;
17686;SDS011;8962;52.538;13.266;2023-10-13T01:16:16;8.02;;;3.70;;
17686;SDS011;8962;52.538;13.266;2023-10-13T01:18:42;6.90;;;3.03;;
17686;SDS011;8962;52.538;13.266;2023-10-13T01:21:15;6.85;;;3.97;;
17686;SDS011;8962;52.538;13.266;2023-10-13T01:23:46;6.68;;;3.40;;
17686;SDS011;8962;52.538;13.266;2023-10-13T01:26:16;6.13;;;3.42;;
17686;SDS011;8962;52.538;13.266;2023-10-13T01:28:49;7.93;;;3.75;;
17686;SDS011;8962;52.538;13.266;2023-10-13T01:31:19;8.27;;;3.85;;
17686;SDS011;8962;52.538;13.266;2023-10-13T01:33:53;7.70;;;3.85;;
17686;SDS011;8962;52.538;13.266;2023-10-13T01:36:26;7.60;;;3.42;;
17686;SDS011;8962;52.538;13.266;2023-10-13T01:38:55;11.10;;;3.88;;
17686;SDS011;8962;52.538;13.266;2023-10-13T01:41:26;9.10;;;4.20;;
17686;SDS011;8962;52.538;13.266;2023-10-13T01:43:56;8.55;;;3.88;;
17686;SDS011;8962;52.538;13.266;2023-10-13T01:46:23;9.57;;;4.18;;
17686;SDS011;8962;52.538;13.266;2023-10-13T01:48:50;7.10;;;4.25;;
17686;SDS011;8962;52.538;13.266;2023-10-13T01:51:19;8.77;;;4.28;;
17686;SDS011;8962;52.538;13.266;2023-10-13T01:53:48;8.23;;;4.70;;
17686;SDS011;8962;52.538;13.266;2023-10-13T01:56:26;8.52;;;4.57;;
17686;SDS011;8962;52.538;13.266;2023-10-13T01:58:55;6.90;;;4.95;;
17686;SDS011;8962;52.538;13.266;2023-10-13T02:01:21;7.28;;;4.88;;
17686;SDS011;8962;52.538;13.266;2023-10-13T02:03:58;9.90;;;4.93;;
17686;SDS011;8962;52.538;13.266;2023-10-13T02:06:29;9.52;;;5.70;;
17686;SDS011;8962;52.538;13.266;2023-10-13T02:08:59;10.30;;;5.95;;
17686;SDS011;8962;52.538;13.266;2023-10-13T02:11:36;11.95;;;6.10;;
17686;SDS011;8962;52.538;13.266;2023-10-13T02:14:04;8.80;;;6.72;;
17686;SDS011;8962;52.538;13.266;2023-10-13T02:16:31;11.07;;;6.68;;
17686;SDS011;8962;52.538;13.266;2023-10-13T02:18:58;10.13;;;6.18;;
17686;SDS011;8962;52.538;13.266;2023-10-13T02:21:29;10.98;;;6.53;;
17686;SDS011;8962;52.538;13.266;2023-10-13T02:23:58;12.20;;;7.60;;
17686;SDS011;8962;52.538;13.266;2023-10-13T02:26:29;10.85;;;6.85;;
17686;SDS011;8962;52.538;13.266;2023-10-13T02:29:05;14.27;;;7.68;;
17686;SDS011;8962;52.538;13.266;2023-10-13T02:31:34;11.52;;;7.72;;
17686;SDS011;8962;52.538;13.266;2023-10-13T02:34:01;14.35;;;8.00;;
17686;SDS011;8962;52.538;13.266;2023-10-13T02:36:33;15.15;;;8.38;;
17686;SDS011;8962;52.538;13.266;2023-10-13T02:39:13;13.13;;;8.20;;
17686;SDS011;8962;52.538;13.266;2023-10-13T02:41:41;12.93;;;8.45;;
17686;SDS011;8962;52.538;13.266;2023-10-13T02:44:14;15.15;;;8.60;;
17686;SDS011;8962;52.538;13.266;2023-10-13T02:46:52;16.23;;;8.57;;
17686;SDS011;8962;52.538;13.266;2023-10-13T02:49:21;16.75;;;9.05;;
17686;SDS011;8962;52.538;13.266;2023-10-13T02:51:51;13.45;;;8.98;;
17686;SDS011;8962;52.538;13.266;2023-10-13T02:54:18;15.82;;;8.82;;
17686;SDS011;8962;52.538;13.266;2023-10-13T02:56:45;16.88;;;9.30;;
17686;SDS011;8962;52.538;13.266;2023-10-13T02:59:16;15.30;;;9.20;;
17686;SDS011;8962;52.538;13.266;2023-10-13T03:01:59;15.23;;;9.20;;
17686;SDS011;8962;52.538;13.266;2023-10-13T03:04:26;18.30;;;9.63;;
17686;SDS011;8962;52.538;13.266;2023-10-13T03:06:53;16.15;;;9.57;;
17686;SDS011;8962;52.538;13.266;2023-10-13T03:09:19;17.58;;;9.68;;
17686;SDS011;8962;52.538;13.266;2023-10-13T03:11:47;17.23;;;9.75;;
17686;SDS011;8962;52.538;13.266;2023-10-13T03:14:16;15.38;;;9.10;;
17686;SDS011;8962;52.538;13.266;2023-10-13T03:16:51;18.30;;;9.68;;
17686;SDS011;8962;52.538;13.266;2023-10-13T03:19:19;13.88;;;8.80;;
17686;SDS011;8962;52.538;13.266;2023-10-13T03:21:47;18.83;;;10.52;;
17686;SDS011;8962;52.538;13.266;2023-10-13T03:24:20;18.73;;;9.85;;
17686;SDS011;8962;52.538;13.266;2023-10-13T03:26:58;17.90;;;10.98;;
17686;SDS011;8962;52.538;13.266;2023-10-13T03:29:31;19.88;;;10.90;;
17686;SDS011;8962;52.538;13.266;2023-10-13T03:32:00;15.82;;;9.90;;
17686;SDS011;8962;52.538;13.266;2023-10-13T03:34:32;21.98;;;11.80;;
17686;SDS011;8962;52.538;13.266;2023-10-13T03:37:00;20.75;;;10.23;;
17686;SDS011;8962;52.538;13.266;2023-10-13T03:39:36;19.80;;;11.38;;
17686;SDS011;8962;52.538;13.266;2023-10-13T03:42:09;21.83;;;11.13;;
17686;SDS011;8962;52.538;13.266;2023-10-13T03:44:45;21.73;;;11.80;;
17686;SDS011;8962;52.538;13.266;2023-10-13T03:47:13;20.23;;;11.43;;
17686;SDS011;8962;52.538;13.266;2023-10-13T03:49:52;20.67;;;11.20;;
17686;SDS011;8962;52.538;13.266;2023-10-13T03:52:39;21.05;;;11.27;;
17686;SDS011;8962;52.538;13.266;2023-10-13T03:55:07;22.95;;;12.57;;
17686;SDS011;8962;52.538;13.266;2023-10-13T03:57:42;22.35;;;12.23;;
17686;SDS011;8962;52.538;13.266;2023-10-13T04:00:13;20.25;;;11.52;;
17686;SDS011;8962;52.538;13.266;2023-10-13T04:02:48;19.77;;;11.88;;
17686;SDS011;8962;52.538;13.266;2023-10-13T04:05:28;21.27;;;11.27;;
17686;SDS011;8962;52.538;13.266;2023-10-13T04:08:04;21.45;;;12.05;;
17686;SDS011;8962;52.538;13.266;2023-10-13T04:10:49;20.75;;;13.20;;
17686;SDS011;8962;52.538;13.266;2023-10-13T04:13:40;20.35;;;12.18;;
17686;SDS011;8962;52.538;13.266;2023-10-13T04:16:31;23.13;;;12.25;;
17686;SDS011;8962;52.538;13.266;2023-10-13T04:19:15;22.15;;;12.63;;
17686;SDS011;8962;52.538;13.266;2023-10-13T04:21:48;20.45;;;12.93;;
17686;SDS011;8962;52.538;13.266;2023-10-13T04:24:23;21.52;;;13.60;;
17686;SDS011;8962;52.538;13.266;2023-10-13T04:27:20;22.55;;;13.90;;
17686;SDS011;8962;52.538;13.266;2023-10-13T04:30:02;24.67;;;14.15;;
17686;SDS011;8962;52.538;13.266;2023-10-13T04:32:45;18.92;;;12.43;;
17686;SDS011;8962;52.538;13.266;2023-10-13T04:35:13;24.02;;;13.57;;
17686;SDS011;8962;52.538;13.266;2023-10-13T04:37:44;22.33;;;13.55;;
17686;SDS011;8962;52.538;13.266;2023-10-13T04:40:16;23.85;;;13.70;;
17686;SDS011;8962;52.538;13.266;2023-10-13T04:42:49;22.52;;;13.30;;
17686;SDS011;8962;52.538;13.266;2023-10-13T04:45:19;21.45;;;13.88;;
17686;SDS011;8962;52.538;13.266;2023-10-13T04:48:10;25.67;;;13.85;;
17686;SDS011;8962;52.538;13.266;2023-10-13T04:50:44;25.73;;;13.93;;
17686;SDS011;8962;52.538;13.266;2023-10-13T04:53:13;26.30;;;13.82;;
17686;SDS011;8962;52.538;13.266;2023-10-13T04:55:54;22.65;;;14.30;;
17686;SDS011;8962;52.538;13.266;2023-10-13T04:58:55;22.98;;;14.50;;
17686;SDS011;8962;52.538;13.266;2023-10-13T05:01:39;30.52;;;13.77;;
17686;SDS011;8962;52.538;13.266;2023-10-13T05:04:25;21.90;;;13.48;;
17686;SDS011;8962;52.538;13.266;2023-10-13T05:07:24;21.38;;;13.95;;
17686;SDS011;8962;52.538;13.266;2023-10-13T05:10:09;26.98;;;14.77;;
17686;SDS011;8962;52.538;13.266;2023-10-13T05:12:53;24.75;;;14.65;;
17686;SDS011;8962;52.538;13.266;2023-10-13T05:15:44;24.60;;;15.07;;
17686;SDS011;8962;52.538;13.266;2023-10-13T05:18:28;24.17;;;15.77;;
17686;SDS011;8962;52.538;13.266;2023-10-13T05:21:10;23.73;;;14.68;;
17686;SDS011;8962;52.538;13.266;2023-10-13T05:23:57;25.17;;;15.60;;
17686;SDS011;8962;52.538;13.266;2023-10-13T05:26:41;25.52;;;15.00;;
17686;SDS011;8962;52.538;13.266;2023-10-13T05:29:25;24.45;;;14.98;;
17686;SDS011;8962;52.538;13.266;2023-10-13T05:32:10;28.42;;;14.10;;
17686;SDS011;8962;52.538;13.266;2023-10-13T05:34:54;25.88;;;14.95;;
17686;SDS011;8962;52.538;13.266;2023-10-13T05:37:40;24.88;;;15.07;;
17686;SDS011;8962;52.538;13.266;2023-10-13T05:40:25;25.30;;;15.23;;
17686;SDS011;8962;52.538;13.266;2023-10-13T05:43:10;23.58;;;13.75;;
17686;SDS011;8962;52.538;13.266;2023-10-13T05:45:55;24.02;;;14.25;;
17686;SDS011;8962;52.538;13.266;2023-10-13T05:48:44;19.92;;;13.65;;
17686;SDS011;8962;52.538;13.266;2023-10-13T05:51:49;19.40;;;12.95;;
17686;SDS011;8962;52.538;13.266;2023-10-13T05:54:32;25.45;;;14.88;;
17686;SDS011;8962;52.538;13.266;2023-10-13T05:57:18;25.15;;;13.73;;
17686;SDS011;8962;52.538;13.266;2023-10-13T06:00:04;22.00;;;14.35;;
17686;SDS011;8962;52.538;13.266;2023-10-13T06:02:50;27.17;;;15.00;;
17686;SDS011;8962;52.538;13.266;2023-10-13T06:05:35;24.00;;;14.55;;
17686;SDS011;8962;52.538;13.266;2023-10-13T06:08:24;20.70;;;13.80;;
17686;SDS011;8962;52.538;13.266;2023-10-13T06:11:09;24.98;;;14.35;;
17686;SDS011;8962;52.538;13.266;2023-10-13T06:13:53;20.42;;;12.35;;
17686;SDS011;8962;52.538;13.266;2023-10-13T06:16:37;22.48;;;13.00;;
17686;SDS011;8962;52.538;13.266;2023-10-13T06:19:22;22.27;;;13.23;;
17686;SDS011;8962;52.538;13.266;2023-10-13T06:22:06;20.75;;;13.32;;
17686;SDS011;8962;52.538;13.266;2023-10-13T06:24:52;18.75;;;13.05;;
17686;SDS011;8962;52.538;13.266;2023-10-13T06:27:37;20.98;;;13.18;;
17686;SDS011;8962;52.538;13.266;2023-10-13T06:30:21;21.85;;;13.23;;
17686;SDS011;8962;52.538;13.266;2023-10-13T06:32:48;22.05;;;12.75;;
17686;SDS011;8962;52.538;13.266;2023-10-13T06:35:16;22.75;;;13.85;;
17686;SDS011;8962;52.538;13.266;2023-10-13T06:37:49;19.48;;;12.85;;
17686;SDS011;8962;52.538;13.266;2023-10-13T06:40:18;20.15;;;13.05;;
17686;SDS011;8962;52.538;13.266;2023-10-13T06:42:58;21.50;;;13.10;;
17686;SDS011;8962;52.538;13.266;2023-10-13T06:45:39;19.40;;;12.40;;
17686;SDS011;8962;52.538;13.266;2023-10-13T06:48:10;20.70;;;12.38;;
17686;SDS011;8962;52.538;13.266;2023-10-13T06:50:47;24.35;;;12.93;;
17686;SDS011;8962;52.538;13.266;2023-10-13T06:53:14;20.15;;;13.20;;
17686;SDS011;8962;52.538;13.266;2023-10-13T06:55:43;21.48;;;13.77;;
17686;SDS011;8962;52.538;13.266;2023-10-13T06:58:14;21.17;;;12.70;;
17686;SDS011;8962;52.538;13.266;2023-10-13T07:00:49;21.95;;;12.95;;
17686;SDS011;8962;52.538;13.266;2023-10-13T07:03:19;21.35;;;12.73;;
17686;SDS011;8962;52.538;13.266;2023-10-13T07:05:46;20.05;;;12.45;;
17686;SDS011;8962;52.538;13.266;2023-10-13T07:08:14;20.00;;;12.02;;
17686;SDS011;8962;52.538;13.266;2023-10-13T07:10:48;18.38;;;12.13;;
17686;SDS011;8962;52.538;13.266;2023-10-13T07:13:26;21.13;;;11.30;;
17686;SDS011;8962;52.538;13.266;2023-10-13T07:15:54;21.95;;;11.70;;
17686;SDS011;8962;52.538;13.266;2023-10-13T07:18:31;16.23;;;10.55;;
17686;SDS011;8962;52.538;13.266;2023-10-13T07:21:02;23.55;;;11.75;;
17686;SDS011;8962;52.538;13.266;2023-10-13T07:23:35;21.25;;;10.95;;
17686;SDS011;8962;52.538;13.266;2023-10-13T07:26:05;14.77;;;10.07;;
17686;SDS011;8962;52.538;13.266;2023-10-13T07:28:33;16.08;;;9.65;;
17686;SDS011;8962;52.538;13.266;2023-10-13T07:31:11;17.60;;;10.00;;
17686;SDS011;8962;52.538;13.266;2023-10-13T07:33:40;16.35;;;9.32;;
17686;SDS011;8962;52.538;13.266;2023-10-13T07:36:09;16.38;;;9.38;;
17686;SDS011;8962;52.538;13.266;2023-10-13T07:38:53;13.57;;;9.20;;
17686;SDS011;8962;52.538;13.266;2023-10-13T07:41:40;22.10;;;9.82;;
17686;SDS011;8962;52.538;13.266;2023-10-13T07:44:08;17.08;;;8.40;;
17686;SDS011;8962;52.538;13.266;2023-10-13T07:46:38;13.40;;;7.82;;
17686;SDS011;8962;52.538;13.266;2023-10-13T07:49:05;13.10;;;8.02;;
17686;SDS011;8962;52.538;13.266;2023-10-13T07:51:36;11.25;;;7.38;;
17686;SDS011;8962;52.538;13.266;2023-10-13T07:54:09;13.60;;;7.97;;
17686;SDS011;8962;52.538;13.266;2023-10-13T07:56:38;10.68;;;7.45;;
17686;SDS011;8962;52.538;13.266;2023-10-13T07:59:07;12.02;;;7.75;;
17686;SDS011;8962;52.538;13.266;2023-10-13T08:01:35;11.75;;;7.28;;
17686;SDS011;8962;52.538;13.266;2023-10-13T08:04:02;14.13;;;7.25;;
17686;SDS011;8962;52.538;13.266;2023-10-13T08:06:36;19.08;;;7.65;;
17686;SDS011;8962;52.538;13.266;2023-10-13T08:09:05;13.02;;;7.20;;
17686;SDS011;8962;52.538;13.266;2023-10-13T08:11:56;14.65;;;7.43;;
17686;SDS011;8962;52.538;13.266;2023-10-13T08:14:25;13.45;;;7.13;;
17686;SDS011;8962;52.538;13.266;2023-10-13T08:16:58;14.25;;;7.18;;
17686;SDS011;8962;52.538;13.266;2023-10-13T08:19:27;11.73;;;6.70;;
17686;SDS011;8962;52.538;13.266;2023-10-13T08:22:04;12.52;;;7.00;;
17686;SDS011;8962;52.538;13.266;2023-10-13T08:24:49;19.00;;;6.68;;
17686;SDS011;8962;52.538;13.266;2023-10-13T08:27:41;18.02;;;7.68;;
17686;SDS011;8962;52.538;13.266;2023-10-13T08:30:15;12.27;;;7.05;;
17686;SDS011;8962;52.538;13.266;2023-10-13T08:32:55;10.65;;;6.40;;
17686;SDS011;8962;52.538;13.266;2023-10-13T08:35:24;9.35;;;6.43;;
17686;SDS011;8962;52.538;13.266;2023-10-13T08:38:00;9.65;;;5.97;;
17686;SDS011;8962;52.538;13.266;2023-10-13T08:40:42;10.07;;;5.80;;
17686;SDS011;8962;52.538;13.266;2023-10-13T08:43:38;12.68;;;6.15;;
17686;SDS011;8962;52.538;13.266;2023-10-13T08:46:10;9.00;;;5.85;;
17686;SDS011;8962;52.538;13.266;2023-10-13T08:48:55;9.73;;;5.78;;
17686;SDS011;8962;52.538;13.266;2023-10-13T08:51:39;13.15;;;6.78;;
17686;SDS011;8962;52.538;13.266;2023-10-13T08:54:13;9.75;;;6.20;;
17686;SDS011;8962;52.538;13.266;2023-10-13T08:56:59;13.07;;;7.65;;
17686;SDS011;8962;52.538;13.266;2023-10-13T08:59:46;8.93;;;5.78;;
17686;SDS011;8962;52.538;13.266;2023-10-13T09:02:19;11.52;;;6.60;;
17686;SDS011;8962;52.538;13.266;2023-10-13T09:05:09;16.42;;;6.07;;
17686;SDS011;8962;52.538;13.266;2023-10-13T09:07:51;11.88;;;6.00;;
17686;SDS011;8962;52.538;13.266;2023-10-13T09:10:21;9.68;;;6.00;;
17686;SDS011;8962;52.538;13.266;2023-10-13T09:12:58;13.02;;;5.80;;
17686;SDS011;8962;52.538;13.266;2023-10-13T09:15:38;8.45;;;6.18;;
17686;SDS011;8962;52.538;13.266;2023-10-13T09:18:26;9.20;;;6.07;;
17686;SDS011;8962;52.538;13.266;2023-10-13T09:21:17;12.07;;;5.82;;
17686;SDS011;8962;52.538;13.266;2023-10-13T09:24:09;8.52;;;5.82;;
17686;SDS011;8962;52.538;13.266;2023-10-13T09:26:47;9.25;;;5.78;;
17686;SDS011;8962;52.538;13.266;2023-10-13T09:29:18;9.82;;;6.85;;
17686;SDS011;8962;52.538;13.266;2023-10-13T09:31:48;18.13;;;8.00;;
17686;SDS011;8962;52.538;13.266;2023-10-13T09:34:27;10.88;;;6.70;;
17686;SDS011;8962;52.538;13.266;2023-10-13T09:36:57;10.18;;;6.45;;
17686;SDS011;8962;52.538;13.266;2023-10-13T09:39:24;17.98;;;7.03;;
17686;SDS011;8962;52.538;13.266;2023-10-13T09:42:10;9.35;;;5.97;;
17686;SDS011;8962;52.538;13.266;2023-10-13T09:44:37;9.63;;;6.40;;
17686;SDS011;8962;52.538;13.266;2023-10-13T09:47:07;11.00;;;5.93;;
17686;SDS011;8962;52.538;13.266;2023-10-13T09:49:43;10.95;;;6.10;;
17686;SDS011;8962;52.538;13.266;2023-10-13T09:52:15;10.57;;;6.75;;
17686;SDS011;8962;52.538;13.266;2023-10-13T09:54:48;11.68;;;6.80;;
17686;SDS011;8962;52.538;13.266;2023-10-13T09:57:27;10.65;;;6.75;;
17686;SDS011;8962;52.538;13.266;2023-10-13T10:00:00;9.98;;;5.97;;
17686;SDS011;8962;52.538;13.266;2023-10-13T10:02:42;8.07;;;6.13;;
17686;SDS011;8962;52.538;13.266;2023-10-13T10:05:10;11.38;;;6.75;;
17686;SDS011;8962;52.538;13.266;2023-10-13T10:07:53;13.48;;;6.78;;
17686;SDS011;8962;52.538;13.266;2023-10-13T10:10:21;12.77;;;7.45;;
17686;SDS011;8962;52.538;13.266;2023-10-13T10:12:53;9.25;;;6.50;;
17686;SDS011;8962;52.538;13.266;2023-10-13T10:15:28;8.85;;;6.30;;
17686;SDS011;8962;52.538;13.266;2023-10-13T10:18:01;9.27;;;7.10;;
17686;SDS011;8962;52.538;13.266;2023-10-13T10:20:29;9.50;;;6.10;;
17686;SDS011;8962;52.538;13.266;2023-10-13T10:23:05;10.43;;;6.20;;
17686;SDS011;8962;52.538;13.266;2023-10-13T10:25:35;7.65;;;5.82;;
17686;SDS011;8962;52.538;13.266;2023-10-13T10:28:03;9.07;;;6.05;;
17686;SDS011;8962;52.538;13.266;2023-10-13T10:30:32;10.10;;;6.22;;
17686;SDS011;8962;52.538;13.266;2023-10-13T10:33:02;10.25;;;6.47;;
17686;SDS011;8962;52.538;13.266;2023-10-13T10:35:37;11.65;;;7.35;;
17686;SDS011;8962;52.538;13.266;2023-10-13T10:38:09;12.25;;;5.85;;
17686;SDS011;8962;52.538;13.266;2023-10-13T10:40:49;8.77;;;6.05;;
17686;SDS011;8962;52.538;13.266;2023-10-13T10:43:23;15.95;;;7.95;;
17686;SDS011;8962;52.538;13.266;2023-10-13T10:45:52;10.57;;;6.50;;
17686;SDS011;8962;52.538;13.266;2023-10-13T10:48:27;12.43;;;6.82;;
17686;SDS011;8962;52.538;13.266;2023-10-13T10:50:59;9.15;;;6.18;;
17686;SDS011;8962;52.538;13.266;2023-10-13T10:53:33;9.32;;;6.55;;
17686;SDS011;8962;52.538;13.266;2023-10-13T10:56:09;11.38;;;6.20;;
17686;SDS011;8962;52.538;13.266;2023-10-13T10:59:02;10.32;;;6.80;;
17686;SDS011;8962;52.538;13.266;2023-10-13T11:01:31;10.68;;;6.80;;
17686;SDS011;8962;52.538;13.266;2023-10-13T11:04:05;9.10;;;5.88;;
17686;SDS011;8962;52.538;13.266;2023-10-13T11:06:45;9.38;;;6.28;;
17686;SDS011;8962;52.538;13.266;2023-10-13T11:09:13;10.50;;;6.90;;
17686;SDS011;8962;52.538;13.266;2023-10-13T11:11:52;12.75;;;5.80;;
17686;SDS011;8962;52.538;13.266;2023-10-13T11:14:22;12.38;;;6.40;;
17686;SDS011;8962;52.538;13.266;2023-10-13T11:16:51;13.40;;;6.28;;
17686;SDS011;8962;52.538;13.266;2023-10-13T11:19:21;10.05;;;6.45;;
17686;SDS011;8962;52.538;13.266;2023-10-13T11:22:09;7.97;;;6.10;;
17686;SDS011;8962;52.538;13.266;2023-10-13T11:24:39;10.70;;;6.55;;
17686;SDS011;8962;52.538;13.266;2023-10-13T11:27:13;8.15;;;5.85;;
17686;SDS011;8962;52.538;13.266;2023-10-13T11:29:46;13.80;;;9.00;;
17686;SDS011;8962;52.538;13.266;2023-10-13T11:32:17;11.80;;;7.20;;
17686;SDS011;8962;52.538;13.266;2023-10-13T11:34:47;11.32;;;6.18;;
17686;SDS011;8962;52.538;13.266;2023-10-13T11:37:19;41.58;;;9.48;;
17686;SDS011;8962;52.538;13.266;2023-10-13T11:40:03;18.77;;;6.57;;
17686;SDS011;8962;52.538;13.266;2023-10-13T11:42:38;10.98;;;6.15;;
17686;SDS011;8962;52.538;13.266;2023-10-13T11:45:09;9.13;;;5.60;;
17686;SDS011;8962;52.538;13.266;2023-10-13T11:47:54;10.63;;;5.88;;
17686;SDS011;8962;52.538;13.266;2023-10-13T11:50:26;9.30;;;5.80;;
17686;SDS011;8962;52.538;13.266;2023-10-13T11:53:00;11.95;;;6.03;;
17686;SDS011;8962;52.538;13.266;2023-10-13T11:55:27;9.98;;;5.78;;
17686;SDS011;8962;52.538;13.266;2023-10-13T11:57:54;8.60;;;5.28;;
17686;SDS011;8962;52.538;13.266;2023-10-13T12:00:24;10.38;;;5.47;;
17686;SDS011;8962;52.538;13.266;2023-10-13T12:03:12;37.25;;;17.40;;
17686;SDS011;8962;52.538;13.266;2023-10-13T12:05:58;22.35;;;12.90;;
17686;SDS011;8962;52.538;13.266;2023-10-13T12:08:47;8.38;;;5.60;;
17686;SDS011;8962;52.538;13.266;2023-10-13T12:11:18;8.15;;;5.30;;
17686;SDS011;8962;52.538;13.266;2023-10-13T12:13:57;6.97;;;5.15;;
17686;SDS011;8962;52.538;13.266;2023-10-13T12:16:36;7.95;;;4.90;;
17686;SDS011;8962;52.538;13.266;2023-10-13T12:19:03;13.40;;;5.82;;
17686;SDS011;8962;52.538;13.266;2023-10-13T12:21:37;14.90;;;7.10;;
17686;SDS011;8962;52.538;13.266;2023-10-13T12:24:04;12.23;;;6.15;;
17686;SDS011;8962;52.538;13.266;2023-10-13T12:26:37;11.55;;;6.00;;
17686;SDS011;8962;52.538;13.266;2023-10-13T12:29:06;11.02;;;6.32;;
17686;SDS011;8962;52.538;13.266;2023-10-13T12:31:47;12.35;;;5.50;;
17686;SDS011;8962;52.538;13.266;2023-10-13T12:34:30;9.50;;;6.05;;
17686;SDS011;8962;52.538;13.266;2023-10-13T12:37:29;8.13;;;5.70;;
17686;SDS011;8962;52.538;13.266;2023-10-13T12:40:15;8.07;;;5.05;;
17686;SDS011;8962;52.538;13.266;2023-10-13T12:43:01;12.18;;;6.03;;
17686;SDS011;8962;52.538;13.266;2023-10-13T12:45:47;8.75;;;5.38;;
17686;SDS011;8962;52.538;13.266;2023-10-13T12:48:34;11.85;;;6.50;;
17686;SDS011;8962;52.538;13.266;2023-10-13T12:51:19;10.68;;;5.75;;
17686;SDS011;8962;52.538;13.266;2023-10-13T12:54:07;11.48;;;5.47;;
17686;SDS011;8962;52.538;13.266;2023-10-13T12:56:40;10.00;;;5.47;;
17686;SDS011;8962;52.538;13.266;2023-10-13T12:59:17;14.13;;;5.90;;
17686;SDS011;8962;52.538;13.266;2023-10-13T13:01:51;9.00;;;5.43;;
17686;SDS011;8962;52.538;13.266;2023-10-13T13:04:18;12.55;;;5.25;;
17686;SDS011;8962;52.538;13.266;2023-10-13T13:06:46;10.98;;;5.40;;
17686;SDS011;8962;52.538;13.266;2023-10-13T13:09:16;10.10;;;4.75;;
17686;SDS011;8962;52.538;13.266;2023-10-13T13:11:51;12.27;;;6.60;;
17686;SDS011;8962;52.538;13.266;2023-10-13T13:14:22;10.82;;;6.13;;
17686;SDS011;8962;52.538;13.266;2023-10-13T13:16:54;20.38;;;6.70;;
17686;SDS011;8962;52.538;13.266;2023-10-13T13:19:26;11.00;;;5.70;;
17686;SDS011;8962;52.538;13.266;2023-10-13T13:21:54;11.88;;;5.78;;
17686;SDS011;8962;52.538;13.266;2023-10-13T13:24:24;12.23;;;6.05;;
17686;SDS011;8962;52.538;13.266;2023-10-13T13:26:55;8.70;;;4.80;;
17686;SDS011;8962;52.538;13.266;2023-10-13T13:29:27;9.82;;;5.32;;
17686;SDS011;8962;52.538;13.266;2023-10-13T13:31:57;10.68;;;4.72;;
17686;SDS011;8962;52.538;13.266;2023-10-13T13:34:25;9.50;;;4.28;;
17686;SDS011;8962;52.538;13.266;2023-10-13T13:36:54;10.70;;;4.68;;
17686;SDS011;8962;52.538;13.266;2023-10-13T13:39:28;13.70;;;5.25;;
17686;SDS011;8962;52.538;13.266;2023-10-13T13:41:56;11.35;;;5.28;;
17686;SDS011;8962;52.538;13.266;2023-10-13T13:44:23;13.18;;;5.25;;
17686;SDS011;8962;52.538;13.266;2023-10-13T13:46:56;13.07;;;5.03;;
17686;SDS011;8962;52.538;13.266;2023-10-13T13:49:23;11.65;;;5.93;;
17686;SDS011;8962;52.538;13.266;2023-10-13T13:52:05;11.40;;;4.80;;
17686;SDS011;8962;52.538;13.266;2023-10-13T13:54:34;12.32;;;4.55;;
17686;SDS011;8962;52.538;13.266;2023-10-13T13:57:01;13.65;;;4.80;;
17686;SDS011;8962;52.538;13.266;2023-10-13T13:59:29;13.20;;;4.63;;
17686;SDS011;8962;52.538;13.266;2023-10-13T14:02:00;7.95;;;4.57;;
17686;SDS011;8962;52.538;13.266;2023-10-13T14:04:32;13.20;;;5.47;;
17686;SDS011;8962;52.538;13.266;2023-10-13T14:06:59;9.95;;;4.72;;
17686;SDS011;8962;52.538;13.266;2023-10-13T14:09:31;15.93;;;5.25;;
17686;SDS011;8962;52.538;13.266;2023-10-13T14:12:05;13.65;;;4.85;;
17686;SDS011;8962;52.538;13.266;2023-10-13T14:14:50;14.93;;;5.35;;
17686;SDS011;8962;52.538;13.266;2023-10-13T14:17:21;10.57;;;4.60;;
17686;SDS011;8962;52.538;13.266;2023-10-13T14:19:54;13.63;;;6.13;;
17686;SDS011;8962;52.538;13.266;2023-10-13T14:22:22;14.98;;;6.85;;
17686;SDS011;8962;52.538;13.266;2023-10-13T14:24:52;13.85;;;5.10;;
17686;SDS011;8962;52.538;13.266;2023-10-13T14:27:21;14.73;;;5.30;;
17686;SDS011;8962;52.538;13.266;2023-10-13T14:29:51;9.10;;;4.82;;
17686;SDS011;8962;52.538;13.266;2023-10-13T14:32:22;16.50;;;5.70;;
17686;SDS011;8962;52.538;13.266;2023-10-13T14:34:52;11.68;;;5.03;;
17686;SDS011;8962;52.538;13.266;2023-10-13T14:37:22;11.77;;;5.28;;
17686;SDS011;8962;52.538;13.266;2023-10-13T14:39:55;18.27;;;5.97;;
17686;SDS011;8962;52.538;13.266;2023-10-13T14:42:23;17.38;;;6.70;;
17686;SDS011;8962;52.538;13.266;2023-10-13T14:44:51;15.88;;;7.25;;
17686;SDS011;8962;52.538;13.266;2023-10-13T14:47:22;15.20;;;6.28;;
17686;SDS011;8962;52.538;13.266;2023-10-13T14:49:51;12.10;;;6.30;;
17686;SDS011;8962;52.538;13.266;2023-10-13T14:52:21;10.35;;;5.90;;
17686;SDS011;8962;52.538;13.266;2023-10-13T14:54:48;9.50;;;5.18;;
17686;SDS011;8962;52.538;13.266;2023-10-13T14:57:23;14.35;;;4.97;;
17686;SDS011;8962;52.538;13.266;2023-10-13T14:59:51;12.02;;;5.25;;
17686;SDS011;8962;52.538;13.266;2023-10-13T15:02:18;10.48;;;5.45;;
17686;SDS011;8962;52.538;13.266;2023-10-13T15:04:46;12.15;;;5.32;;
17686;SDS011;8962;52.538;13.266;2023-10-13T15:07:15;9.10;;;5.18;;
17686;SDS011;8962;52.538;13.266;2023-10-13T15:09:45;20.48;;;11.32;;
17686;SDS011;8962;52.538;13.266;2023-10-13T15:12:12;16.63;;;7.35;;
17686;SDS011;8962;52.538;13.266;2023-10-13T15:14:41;15.05;;;7.90;;
17686;SDS011;8962;52.538;13.266;2023-10-13T15:17:09;12.25;;;5.50;;
17686;SDS011;8962;52.538;13.266;2023-10-13T15:19:36;19.42;;;7.00;;